NACIONALNO OTVORENO PRVENSTVO HRVATSKE U KARTINGU
2. NAGRADA VIROVITICE '09
Virovitica, 04.10.2009.

KLASA I
Poz. S.b. Vozač Klub Nac. Krug Vrijeme Zaostatak Bod.
1. 103 Matija Kovačić KK 1 Zagreb HR 5 4:46,316 0:00,000 -
2. 108 Dorian Vargović AMKK Cobra HR 5 4:53,774 0:07,458 -
3. 111 Tin Vorkapić KK Koprivnica HR 5 5:14,121 0:27,805 -
4. 115 Tanya Mirt (SLO) AMD Krško SLO 5 5:14,762 0:28,446 -
5. 110 Matija Habek KU Novi Marof HR 5 5:15,287 0:28,971 -
6. 105 Jan Pokos AK Speedy HR 5 5:19,050 0:32,734 -
7. 112 Filip Vuković AMKK Cobra HR 4 5:04,546 1 krug -
 
KLASA II - 1. UTRKA
Poz. S.b. Vozač Klub Nac. Krug Vrijeme Zaostatak Bod.
1. 206 Damian Sekulić KU Novi Marof HR 12 9:54,571 0:00,000 20
2. 216 Fran Tisaj KK Koprivnica HR 12 10:12,155 0:17,584 15
3. 219 Mihael Meretaj AMKK Cobra HR 12 10:30,635 0:36,064 12
4. 220 Karla Švec AKK Podravina Koprivnica HR 12 10:36,717 0:42,146 10
5. 211 Corina Lukša AMKK Cobra HR 12 10:37,090 0:42,519 8
6. 212 Luka Moslavac AMKK Cobra HR 12 10:38,257 0:43,686 6
- 217 Muhammad Pličanić AK Info Kart HR 0 odustao -
 
KLASA II - 2. UTRKA
*- +15s odlukom direktora radi preranog starta
Poz. S.b. Vozač Klub Nac. Krug Vrijeme Zaostatak Bod.
1. 206 Damian Sekulić KU Novi Marof HR 12 9:50,047 0:00,000 20
2. 216 Fran Tisaj KK Koprivnica HR 12 10:00,950 0:10,903 15
3. 217 Muhammad Pličanić AK Info Kart HR 12 10:01,251 0:11,204 12
4. 219 Mihael Meretaj AMKK Cobra HR 12 10:36,511 0:46,464 10
5. 211 Corina Lukša AMKK Cobra HR 12 10:39,255 0:49,208 8
6. 212 Luka Moslavac AMKK Cobra HR 12 10:39,714 0:49,667 6
7. 220* Karla Švec AKK Podravina Koprivnica HR 12 10:53,855 1:03,808 4*
 
KLASA III - 1. UTRKA
Poz. S.b. Vozač Klub Nac. Krug Vrijeme Zaostatak Bod.
1. 301 Juraj Kovačić KK 1 Zagreb HR 12 9:10,326 0:00,000 20
2. 305 William Mucak KK 1 Zagreb HR 12 9:13,874 0:03,548 15
3. 303 Moni Petrović AK Speedy HR 12 9:17,491 0:07,165 12
4. 302 Benjamin Žganec KK 1 Zagreb HR 12 9:20,170 0:09,844 10
5. 304 Dino Paleka KK Koprivnica HR 12 9:31,965 0:21,639 8
 
KLASA III - 2. UTRKA
Poz. S.b. Vozač Klub Nac. Krug Vrijeme Zaostatak Bod.
1. 301 Juraj Kovačić KK 1 Zagreb HR 12 9:07,318 0:00,000 20
2. 305 William Mucak KK 1 Zagreb HR 12 9:18,633 0:11,315 15
3. 303 Moni Petrović AK Speedy HR 12 9:21,749 0:14,431 12
4. 302 Benjamin Žganec KK 1 Zagreb HR 12 9:21,981 0:14,663 10
5. 304 Dino Paleka KK Koprivnica HR 12 9:27,911 0:20,593 8
 
KLASA V - 1. UTRKA
Poz. S.b. Vozač Klub Nac. Krug Vrijeme Zaostatak Bod.
1. 501 Nikola Belohradski AKK Zanatlija HR 15 10:06,067 0:00,000 20
2. 509 Mislav Mikulec AKK Podravina Koprivnica HR 15 10:08,984 0:02,917 15
3. 507 Martin Kodrić KK 1 Zagreb HR 15 10:09,796 0:03,729 12
4. 508 Filip Romić AMKK Cobra HR 15 10:37,853 0:31,786 10
5. 506 Dominik Đurđ KK Koprivnica HR 15 10:47,782 0:41,715 8
 
KLASA V - 2. UTRKA
Poz. S.b. Vozač Klub Nac. Krug Vrijeme Zaostatak Bod.
1. 501 Nikola Belohradski AKK Zanatlija HR 15 10:08,512 0:00,000 20
2. 507 Martin Kodrić KK 1 Zagreb HR 15 10:10,440 0:01,928 15
3. 509 Mislav Mikulec AKK Podravina Koprivnica HR 15 10:15,572 0:07,060 12
4. 508 Filip Romić AMKK Cobra HR 14 10:09,240 1 krug 10
5. 506 Dominik Đurđ KK Koprivnica HR 14 10:15,623 1 krug 8
 
KLASA VII - 1. UTRKA
Poz. S.b. Vozač Klub Nac. Krug Vrijeme Zaostatak Bod.
1. 721 Marko Sitarić KK Koprivnica HR 19 12:51,677 0:00,000 20
2. 719 Žarko Martinjak KK Koprivnica HR 19 12:54,726 0:03,049 15
3. 709 Branimir Rojko KK Koprivnica HR 19 13:17,953 0:26,276 12
4. 717 Miroslav Šajnić KK 1 Zagreb HR 18 12:55,264 1 krug 10
5. 720 Zlatko Kovačić KK Koprivnica HR 18 13:32,151 1 krug 8
6. 716 Siniša Mišić AMKK Cobra HR 18 13:35,382 1 krug 6
7. 704 Zlatko Banić SAK Split HR 17 12:54,411 2 kruga 4
 
KLASA VII - 2. UTRKA
Poz. S.b. Vozač Klub Nac. Krug Vrijeme Zaostatak Bod.
1. 721 Marko Sitarić KK Koprivnica HR 19 12:51,671 0:00,000 20
2. 719 Žarko Martinjak KK Koprivnica HR 19 12:53,691 0:02,020 15
3. 717 Miroslav Šajnić KK 1 Zagreb HR 19 13:22,380 0:30,709 12
4. 709 Branimir Rojko KK Koprivnica HR 19 13:24,900 0:33,229 10
5. 704 Zlatko Banić SAK Split HR 18 13:26,653 1 krug 8
6. 720 Zlatko Kovačić KK Koprivnica HR 18 13:35,495 1 krug 6
7. 716 Siniša Mišić AMKK Cobra HR 17 13:08,053 2 kruga 4
 
KLASA VIII - 1. UTRKA
Poz. S.b. Vozač Klub Nac. Krug Vrijeme Zaostatak Bod.
1. 804 Karlo Golub KK 1 Zagreb HR 15 10:01,101 0:00,000 20
2. 805 Sven Gorup AKK Zanatlija HR 15 10:04,567 0:03,466 15
3. 807 Tomislav Srbljinović KK 1 Zagreb HR 15 10:07,713 0:06,612 12
4. 816 Tomislav Pavlić KK 1 Zagreb HR 15 10:09,235 0:08,134 10
5. 813 Borna Vlašić AKK Podravina Koprivnica HR 15 10:16,259 0:15,158 8
6. 811 Sanjin Trope AK Quickly HR 15 10:24,106 0:23,005 6
7. 812 Igor Vargović AMKK Cobra HR 15 10:29,750 0:28,649 4
8. 817 Antun Kovač AKK Podravina Koprivnica HR 14 10:12,314 1 krug 3
 
KLASA VIII - 2. UTRKA
Poz. S.b. Vozač Klub Nac. Krug Vrijeme Zaostatak Bod.
1. 804 Karlo Golub KK 1 Zagreb HR 15 10:07,954 0:00,000 20
2. 807 Tomislav Srbljinović KK 1 Zagreb HR 15 10:11,704 0:03,750 15
3. 813 Borna Vlašić AKK Podravina Koprivnica HR 15 10:12,590 0:04,636 12
4. 811 Sanjin Trope AK Quickly HR 15 10:24,125 0:16,171 10
5. 816 Tomislav Pavlić KK 1 Zagreb HR 15 10:24,831 0:16,877 8
6. 812 Igor Vargović AMKK Cobra HR 15 10:31,887 0:23,933 6
7. 817 Antun Kovač AKK Podravina Koprivnica HR 15 10:48,000 0:40,046 4
- 805 Sven Gorup AKK Zanatlija HR 5 odustao -
 
KLASA IX - 1. UTRKA
Poz. S.b. Vozač Klub Nac. Krug Vrijeme Zaostatak Bod.
1. 901 Samir Smailagić AK Info Kart HR 15 11:12,249 0:00,000 20
2. 908 Ivijan Rajnović AMKK Cobra HR 15 11:21,418 0:09,169 15
3. 904 Alan Vorkapić KK Koprivnica HR 15 11:26,031 0:13,782 12
4. 916 Tarik Pličanić AK Info Kart HR 15 11:26,272 0:14,023 10
5. 903 Vladimir Vukobrat AK Info Kart HR 15 11:29,315 0:17,066 8
6. 915 Tomislav Lovrenc AKK Podravina Koprivnica HR 15 11:44,137 0:31,888 6
 
KLASA IX - 2. UTRKA
Poz. S.b. Vozač Klub Nac. Krug Vrijeme Zaostatak Bod.
1. 901 Samir Smailagić AK Info Kart HR 15 11:10,616 0:00,000 20
2. 908 Ivijan Rajnović AMKK Cobra HR 15 11:19,434 0:08,818 15
3. 903 Vladimir Vukobrat AK Info Kart HR 15 11:30,499 0:19,883 12
4. 916 Tarik Pličanić AK Info Kart HR 15 11:49,008 0:38,392 10
5. 904 Alan Vorkapić KK Koprivnica HR 15 11:57,347 0:46,731 8
6. 915 Tomislav Lovrenc AKK Podravina Koprivnica HR 14 11:13,557 1 krug 6
 
PRVENSTVO HRVATSKE